St. James, MN

4:50 PM CDT on May 27, 2017 (GMT -0500)
Saint James Municipal

Weather History for KJYG - January, 2012

Change the Weather History Date:

Saturday, January 28, 2012

  Actual Average Record
Temperature  
Mean Temperature 27 °F -  
Max Temperature 35 °F 22 °F 40 °F (1976)
Min Temperature 19 °F 5 °F -22 °F (1966)
Degree Days  
Heating Degree Days 38    
Moisture  
Dew Point 16 °F    
Average Humidity 64    
Maximum Humidity 74    
Minimum Humidity 48    
Precipitation  
Precipitation 0.00 in - - ()
Sea Level Pressure  
Sea Level Pressure 30.02 in    
Wind  
Wind Speed 14 mph (WSW)    
Max Wind Speed 20 mph    
Max Gust Speed 24 mph    
Visibility 10 miles    
Events      
Averages and records for this station are not official NWS values.
T = Trace of Precipitation, MM = Missing Value Source: NWS Daily Summary

Daily Weather History Graph

Daily Weather History Graph

Search for Another Location

Airport or City:

Trip Planner

Search our weather history database for the weather conditions in past years. The results will help you decide how hot, cold, wet, or windy it might be!

Date:

Astronomy

Jan. 28, 2012 Rise Set
Actual Time 7:40 AM CST 5:22 PM CST
Civil Twilight 7:09 AM CST 5:53 PM CST
Nautical Twilight 6:34 AM CST 6:28 PM CST
Astronomical Twilight 6:00 AM CST 7:02 PM CST
Moon 9:48 AM CST (1/28) 11:26 PM CST (1/28)
Length of Visible Light 10h 44m
Length of Day
9h 42m
Waxing Crescent, 28% of the Moon is Illuminated
Jan 28
Waxing Crescent
Jan 30
First Quarter
Feb 7
Full
Feb 14
Last Quarter
Feb 21
New

Hourly Weather History & Observations

Time (CST) Temp. Windchill Dew Point Humidity Pressure Visibility Wind Dir Wind Speed Gust Speed Precip Events Conditions
12:15 AM 26.6 °F 14.7 °F 17.6 °F 69% 30.01 in 10.0 mi West 15.0 mph - N/A   Clear
12:34 AM 26.6 °F 15.2 °F 17.6 °F 69% 30.00 in 10.0 mi West 13.8 mph - N/A   Clear
12:55 AM 24.8 °F 13.4 °F 15.8 °F 69% 30.00 in 10.0 mi West 12.7 mph - N/A   Clear
1:15 AM 24.8 °F 12.9 °F 15.8 °F 69% 30.00 in 10.0 mi West 13.8 mph - N/A   Clear
1:35 AM 24.8 °F 13.4 °F 15.8 °F 69% 29.99 in 10.0 mi West 12.7 mph - N/A   Clear
1:55 AM 24.8 °F 14.0 °F 14.0 °F 64% 29.99 in 10.0 mi WSW 11.5 mph - N/A   Clear
2:15 AM 24.8 °F 11.5 °F 14.0 °F 64% 29.99 in 10.0 mi West 17.3 mph - N/A   Clear
2:35 AM 24.8 °F 10.7 °F 14.0 °F 64% 30.00 in 10.0 mi West 19.6 mph - N/A   Clear
2:55 AM 24.8 °F 11.1 °F 12.2 °F 59% 30.00 in 10.0 mi West 18.4 mph - N/A   Clear
3:15 AM 23.0 °F 9.6 °F 14.0 °F 68% 30.00 in 10.0 mi West 16.1 mph - N/A   Clear
3:35 AM 24.8 °F 11.1 °F 14.0 °F 64% 30.01 in 10.0 mi West 18.4 mph - N/A   Clear
3:54 AM 23.0 °F 8.7 °F 14.0 °F 68% 30.01 in 10.0 mi West 18.4 mph 24.2 mph N/A   Clear
4:15 AM 23.0 °F 9.2 °F 14.0 °F 68% 30.00 in 10.0 mi West 17.3 mph - N/A   Clear
4:35 AM 23.0 °F 8.3 °F 14.0 °F 68% 30.00 in 10.0 mi West 19.6 mph - N/A   Clear
4:55 AM 21.2 °F 6.4 °F 14.0 °F 74% 30.00 in 10.0 mi West 18.4 mph - N/A   Clear
5:15 AM 21.2 °F 6.8 °F 14.0 °F 74% 30.00 in 10.0 mi West 17.3 mph - N/A   Clear
5:35 AM 21.2 °F 7.3 °F 14.0 °F 74% 30.01 in 10.0 mi West 16.1 mph - N/A   Clear
5:55 AM 21.2 °F 7.8 °F 14.0 °F 74% 30.01 in 10.0 mi WSW 15.0 mph - N/A   Clear
6:15 AM 21.2 °F 8.9 °F 12.2 °F 68% 30.02 in 10.0 mi West 12.7 mph - N/A   Clear
6:34 AM 21.2 °F 8.9 °F 12.2 °F 68% 30.02 in 10.0 mi West 12.7 mph - N/A   Clear
6:54 AM 21.2 °F 8.9 °F 12.2 °F 68% 30.02 in 10.0 mi West 12.7 mph - N/A   Clear
7:15 AM 21.2 °F 8.9 °F 12.2 °F 68% 30.02 in 10.0 mi West 12.7 mph - N/A   Clear
7:35 AM 19.4 °F 6.6 °F 12.2 °F 74% 30.03 in 10.0 mi WSW 12.7 mph - N/A   Clear
7:55 AM 19.4 °F 6.0 °F 12.2 °F 74% 30.03 in 10.0 mi WSW 13.8 mph - N/A   Clear
8:15 AM 19.4 °F 6.0 °F 12.2 °F 74% 30.04 in 10.0 mi WSW 13.8 mph - N/A   Clear
8:34 AM 21.2 °F 8.3 °F 12.2 °F 68% 30.04 in 10.0 mi WSW 13.8 mph 19.6 mph N/A   Clear
8:55 AM 21.2 °F 9.5 °F 12.2 °F 68% 30.04 in 10.0 mi WSW 11.5 mph - N/A   Clear
9:14 AM 23.0 °F 11.7 °F 12.2 °F 63% 30.04 in 10.0 mi WSW 11.5 mph - N/A   Clear
9:35 AM 24.8 °F 12.9 °F 14.0 °F 64% 30.04 in 10.0 mi WSW 13.8 mph - N/A   Clear
9:55 AM 24.8 °F 13.4 °F 15.8 °F 69% 30.04 in 10.0 mi West 12.7 mph - N/A   Clear
10:14 AM 26.6 °F 16.8 °F 15.8 °F 64% 30.04 in 10.0 mi West 10.4 mph - N/A   Clear
10:35 AM 28.4 °F 19.7 °F 15.8 °F 59% 30.05 in 10.0 mi West 9.2 mph - N/A   Clear
10:55 AM 28.4 °F 18.5 °F 15.8 °F 59% 30.05 in 10.0 mi West 11.5 mph - N/A   Clear
11:14 AM 30.2 °F 19.8 °F 15.8 °F 55% 30.05 in 10.0 mi West 13.8 mph - N/A   Clear
11:35 AM 30.2 °F 20.8 °F 17.6 °F 60% 30.05 in 10.0 mi WSW 11.5 mph 16.1 mph N/A   Clear
11:55 AM 30.2 °F 19.8 °F 17.6 °F 60% 30.04 in 10.0 mi West 13.8 mph - N/A   Clear
12:15 PM 32.0 °F 22.5 °F 17.6 °F 55% 30.04 in 10.0 mi West 12.7 mph - N/A   Clear
12:34 PM 33.8 °F 24.3 °F 15.8 °F 48% 30.04 in 10.0 mi West 13.8 mph 18.4 mph N/A   Clear
12:55 PM 33.8 °F 23.9 °F 15.8 °F 48% 30.03 in 10.0 mi West 15.0 mph - N/A   Clear
1:15 PM 33.8 °F 25.3 °F 17.6 °F 52% 30.03 in 10.0 mi WSW 11.5 mph - N/A   Clear
1:35 PM 33.8 °F 25.8 °F 17.6 °F 52% 30.02 in 10.0 mi WSW 10.4 mph - N/A   Clear
1:55 PM 33.8 °F 27.0 °F 19.4 °F 56% 30.02 in 10.0 mi SW 8.1 mph - N/A   Clear
2:15 PM 33.8 °F 26.4 °F 19.4 °F 56% 30.01 in 10.0 mi SW 9.2 mph - N/A   Scattered Clouds
2:34 PM 35.6 °F 26.6 °F 21.2 °F 56% 30.01 in 10.0 mi WSW 13.8 mph 18.4 mph N/A   Scattered Clouds
2:55 PM 35.6 °F 25.2 °F 21.2 °F 56% 30.01 in 10.0 mi WSW 18.4 mph - N/A   Clear
3:15 PM 35.6 °F 26.2 °F 21.2 °F 56% 30.01 in 10.0 mi WSW 15.0 mph - N/A   Clear
3:35 PM 35.6 °F 27.1 °F 21.2 °F 56% 30.01 in 10.0 mi WSW 12.7 mph - N/A   Clear
3:55 PM 35.6 °F 26.6 °F 21.2 °F 56% 30.01 in 10.0 mi WSW 13.8 mph 18.4 mph N/A   Scattered Clouds
4:14 PM 35.6 °F 25.5 °F 21.2 °F 56% 30.01 in 10.0 mi West 17.3 mph - N/A   Scattered Clouds
4:35 PM 33.8 °F 23.5 °F 21.2 °F 60% 30.01 in 10.0 mi West 16.1 mph - N/A   Clear
4:54 PM 33.8 °F 24.8 °F 21.2 °F 60% 30.01 in 10.0 mi West 12.7 mph - N/A   Clear
5:15 PM 32.0 °F 22.1 °F 21.2 °F 64% 30.01 in 10.0 mi West 13.8 mph - N/A   Clear
5:34 PM 32.0 °F 23.0 °F 21.2 °F 64% 30.01 in 10.0 mi WSW 11.5 mph - N/A   Clear
5:55 PM 30.2 °F 21.3 °F 21.2 °F 69% 30.00 in 10.0 mi West 10.4 mph - N/A   Clear
6:15 PM 28.4 °F 20.4 °F 21.2 °F 74% 30.01 in 10.0 mi WSW 8.1 mph - N/A   Clear
6:34 PM 28.4 °F 20.4 °F 21.2 °F 74% 30.01 in 10.0 mi SW 8.1 mph - N/A   Clear
6:55 PM 26.6 °F 18.2 °F 21.2 °F 80% 30.00 in 10.0 mi SW 8.1 mph - N/A   Mostly Cloudy
7:15 PM 26.6 °F - 21.2 °F 80% 29.99 in 10.0 mi Calm Calm - N/A   Scattered Clouds
7:34 PM 28.4 °F 20.4 °F 21.2 °F 74% 29.99 in 10.0 mi SW 8.1 mph - N/A   Mostly Cloudy
7:55 PM 28.4 °F 19.7 °F 21.2 °F 74% 29.98 in 10.0 mi SW 9.2 mph - N/A   Overcast
8:15 PM 28.4 °F 20.4 °F 21.2 °F 74% 29.97 in 10.0 mi SW 8.1 mph - N/A   Mostly Cloudy
8:35 PM 28.4 °F 19.1 °F 21.2 °F 74% 29.96 in 10.0 mi SW 10.4 mph - N/A   Mostly Cloudy
8:55 PM 28.4 °F - 21.2 °F 74% 29.96 in 10.0 mi Calm Calm - N/A   Mostly Cloudy
9:15 PM 28.4 °F 21.2 °F 21.2 °F 74% 29.96 in 10.0 mi SW 6.9 mph - N/A   Overcast
9:35 PM 28.4 °F 19.1 °F 23.0 °F 80% 29.95 in 10.0 mi SW 10.4 mph - N/A   Overcast
9:54 PM 32.0 °F 19.8 °F 24.8 °F 75% 29.94 in 10.0 mi West 20.7 mph 25.3 mph N/A   Mostly Cloudy
10:15 PM 30.2 °F 18.5 °F 26.6 °F 86% 29.94 in 10.0 mi West 17.3 mph - N/A   Scattered Clouds
10:35 PM 32.0 °F 18.9 °F 26.6 °F 80% 29.95 in 10.0 mi West 24.2 mph 33.4 mph N/A   Mostly Cloudy
10:55 PM 30.2 °F 17.8 °F 26.6 °F 86% 29.95 in 7.0 mi West 19.6 mph - N/A Snow Light Snow
11:15 PM 30.2 °F 18.1 °F 24.8 °F 80% 29.96 in 10.0 mi West 18.4 mph 23.0 mph N/A   Scattered Clouds
11:35 PM 28.4 °F 15.4 °F 24.8 °F 86% 29.96 in 10.0 mi West 19.6 mph - N/A   Clear
11:55 PM 28.4 °F 15.8 °F 24.8 °F 86% 29.97 in 10.0 mi West 18.4 mph 24.2 mph N/A   Clear